createdAt,value
2022-08-19T00:01:43.617Z,90.55
2022-08-19T00:06:44.579Z,90.45
2022-08-19T00:11:43.490Z,90.34
2022-08-19T00:16:43.526Z,90.85
2022-08-19T00:21:43.457Z,90.75
2022-08-19T00:26:43.519Z,90.95
2022-08-19T00:31:43.255Z,90.69
2022-08-19T00:36:43.208Z,91.09
2022-08-19T00:41:43.158Z,91.19
2022-08-19T00:46:43.088Z,91.39
2022-08-19T00:51:43.037Z,91.34
2022-08-19T00:56:42.989Z,91.85
2022-08-19T01:01:42.974Z,91.74
2022-08-19T01:06:42.865Z,91.64
2022-08-19T01:11:42.979Z,92.05
2022-08-19T01:16:42.779Z,92.05
2022-08-19T01:21:42.844Z,92.40
2022-08-19T01:26:42.660Z,92.69
2022-08-19T01:31:42.619Z,92.69
2022-08-19T01:36:42.658Z,93.00
2022-08-19T01:41:42.500Z,93.00
2022-08-19T01:46:43.579Z,93.20
2022-08-19T01:51:42.581Z,93.10
2022-08-19T01:56:42.537Z,93.35
2022-08-19T02:01:42.474Z,93.44
2022-08-19T02:06:42.216Z,94.06
2022-08-19T02:11:42.246Z,93.65
2022-08-19T02:16:42.106Z,93.95
2022-08-19T02:21:42.046Z,93.95
2022-08-19T02:26:41.996Z,94.15
2022-08-19T02:31:41.961Z,94.06
2022-08-19T02:36:42.508Z,93.85
2022-08-19T02:41:41.850Z,93.79
2022-08-19T02:46:41.791Z,93.79
2022-08-19T02:51:41.727Z,93.90
2022-08-19T02:56:41.680Z,94.60
2022-08-19T03:01:41.962Z,94.20
2022-08-19T03:06:41.658Z,94.10
2022-08-19T03:11:41.616Z,94.14
2022-08-19T03:16:42.466Z,94.35
2022-08-19T03:21:41.400Z,94.35
2022-08-19T03:26:51.180Z,94.35
2022-08-19T03:31:43.283Z,94.45
2022-08-19T03:36:41.269Z,94.45
2022-08-19T03:41:44.958Z,94.45
2022-08-19T03:46:42.394Z,94.35
2022-08-19T03:51:41.082Z,94.45
2022-08-19T03:56:41.017Z,94.55
2022-08-19T04:01:40.987Z,94.79
2022-08-19T04:06:41.004Z,94.75
2022-08-19T04:11:43.563Z,94.75
2022-08-19T04:16:40.813Z,94.70
2022-08-19T04:21:41.827Z,94.59
2022-08-19T04:26:40.698Z,94.59
2022-08-19T04:31:40.676Z,94.79
2022-08-19T04:36:40.588Z,95.00
2022-08-19T04:41:40.548Z,95.10
2022-08-19T04:46:50.864Z,95.00
2022-08-19T04:51:41.443Z,95.26
2022-08-19T04:56:40.389Z,95.06
2022-08-19T05:01:40.441Z,95.06
2022-08-19T05:06:40.372Z,94.91
2022-08-19T05:11:40.215Z,94.81
2022-08-19T05:16:40.157Z,93.95
2022-08-19T05:21:40.176Z,94.06
2022-08-19T05:26:40.130Z,93.65
2022-08-19T05:31:41.856Z,93.40
2022-08-19T05:36:39.934Z,93.26
2022-08-19T05:41:39.949Z,93.17
2022-08-19T05:46:39.878Z,92.47
2022-08-19T05:51:39.825Z,91.28
2022-08-19T05:56:39.869Z,89.43
2022-08-19T06:01:39.692Z,88.28
2022-08-19T06:06:39.608Z,87.33
2022-08-19T06:11:39.568Z,87.53
2022-08-19T06:16:39.621Z,87.04
2022-08-19T06:21:39.429Z,86.00
2022-08-19T06:26:39.417Z,85.16
2022-08-19T06:31:39.345Z,84.21
2022-08-19T06:36:39.379Z,84.21
2022-08-19T06:41:43.637Z,83.91
2022-08-19T06:46:40.284Z,84.81
2022-08-19T06:51:42.842Z,85.22
2022-08-19T06:56:40.060Z,84.33
2022-08-19T07:01:39.030Z,83.19
2022-08-19T07:06:44.333Z,82.05
2022-08-19T07:11:40.099Z,80.91
2022-08-19T07:16:42.512Z,80.47
2022-08-19T07:21:38.793Z,79.83
2022-08-19T07:26:38.770Z,79.53
2022-08-19T07:31:38.707Z,78.99
2022-08-19T07:36:38.686Z,78.89
2022-08-19T07:41:38.689Z,78.45
2022-08-19T07:46:38.635Z,77.22
2022-08-19T07:51:39.502Z,77.28
2022-08-19T07:56:38.518Z,75.95
2022-08-19T08:01:41.928Z,74.88
2022-08-19T08:06:38.334Z,73.78
2022-08-19T08:11:38.290Z,74.08
2022-08-19T08:16:39.507Z,73.51
2022-08-19T08:26:38.220Z,72.08
2022-08-19T08:31:40.339Z,71.22
2022-08-19T08:36:39.178Z,70.15
2022-08-19T08:41:39.157Z,67.80
2022-08-19T08:46:38.084Z,68.73
2022-08-19T08:51:38.360Z,67.83
2022-08-19T08:56:39.002Z,68.57
2022-08-19T09:01:37.856Z,67.31
2022-08-19T09:06:37.806Z,65.39
2022-08-19T09:11:42.099Z,62.42
2022-08-19T09:16:38.632Z,62.82
2022-08-19T09:21:37.567Z,61.37
2022-08-19T09:26:52.576Z,59.79
2022-08-19T09:31:39.548Z,61.04
2022-08-19T09:36:37.468Z,62.12
2022-08-19T09:41:37.511Z,59.99
2022-08-19T09:46:37.442Z,60.65
2022-08-19T09:51:37.438Z,58.91
2022-08-19T09:56:37.433Z,60.06
2022-08-19T10:01:38.194Z,59.83
2022-08-19T10:06:46.321Z,58.09
2022-08-19T10:11:39.986Z,58.32
2022-08-19T10:16:39.469Z,58.34
2022-08-19T10:21:37.003Z,59.75
2022-08-19T10:26:37.046Z,61.36
2022-08-19T10:32:01.095Z,58.95
2022-08-19T10:36:37.872Z,59.45
2022-08-19T10:41:37.797Z,59.84
2022-08-19T10:46:36.727Z,59.97
2022-08-19T10:51:46.534Z,61.12
2022-08-19T10:56:37.648Z,61.72
2022-08-19T11:01:36.683Z,60.47
2022-08-19T11:06:36.530Z,60.37
2022-08-19T11:11:39.419Z,58.91
2022-08-19T11:16:37.253Z,59.01
2022-08-19T11:21:36.473Z,60.23
2022-08-19T11:26:36.352Z,59.38
2022-08-19T11:31:36.273Z,58.63
2022-08-19T11:36:36.265Z,57.93
2022-08-19T11:41:36.267Z,58.11
2022-08-19T11:46:36.187Z,56.79
2022-08-19T11:51:36.085Z,58.13
2022-08-19T11:56:36.083Z,57.69
2022-08-19T12:01:35.998Z,57.79
2022-08-19T12:06:35.957Z,56.85
2022-08-19T12:11:35.875Z,55.18
2022-08-19T12:16:42.255Z,52.95
2022-08-19T12:21:36.879Z,53.47
2022-08-19T12:26:37.050Z,54.59
2022-08-19T12:31:37.806Z,54.19
2022-08-19T12:36:35.699Z,52.71
2022-08-19T12:41:35.606Z,54.61
2022-08-19T12:46:36.603Z,54.02
2022-08-19T12:51:35.490Z,55.43
2022-08-19T12:56:35.398Z,52.36
2022-08-19T13:01:35.523Z,52.58
2022-08-19T13:06:35.394Z,52.19
2022-08-19T13:11:35.361Z,50.73
2022-08-19T13:16:35.286Z,49.62
2022-08-19T13:21:35.179Z,49.84
2022-08-19T13:26:35.157Z,52.93
2022-08-19T13:31:35.085Z,51.18
2022-08-19T13:36:35.000Z,50.90
2022-08-19T13:41:35.029Z,50.31
2022-08-19T13:46:34.906Z,50.21
2022-08-19T13:51:34.972Z,49.94
2022-08-19T13:56:34.917Z,48.98
2022-08-19T14:01:34.753Z,46.40
2022-08-19T14:06:34.774Z,47.75
2022-08-19T14:11:34.710Z,47.47
2022-08-19T14:16:34.829Z,48.39
2022-08-19T14:21:37.510Z,49.01
2022-08-19T14:26:35.650Z,49.48
2022-08-19T14:31:34.550Z,46.19
2022-08-19T14:36:38.946Z,46.69
2022-08-19T14:41:34.456Z,47.18
2022-08-19T14:46:34.379Z,46.69
2022-08-19T14:51:34.291Z,47.69
2022-08-19T14:56:34.358Z,47.91
2022-08-19T15:01:34.377Z,47.79
2022-08-19T15:06:34.209Z,48.58
2022-08-19T15:11:34.204Z,49.08
2022-08-19T15:16:34.073Z,48.61
2022-08-19T15:21:34.086Z,49.10
2022-08-19T15:26:34.018Z,48.11
2022-08-19T15:31:33.956Z,49.52
2022-08-19T15:36:33.911Z,51.03
2022-08-19T15:41:33.781Z,51.25
2022-08-19T15:46:35.736Z,52.26
2022-08-19T15:51:33.680Z,51.94
2022-08-19T15:56:33.621Z,51.94
2022-08-19T16:01:35.431Z,51.94
2022-08-19T16:06:34.516Z,51.42
2022-08-19T16:11:39.130Z,51.67
2022-08-19T16:16:34.990Z,51.47
2022-08-19T16:21:33.498Z,51.79
2022-08-19T16:26:33.312Z,51.23
2022-08-19T16:31:33.245Z,50.93
2022-08-19T16:36:33.210Z,50.41
2022-08-19T16:41:33.357Z,50.01
2022-08-19T16:46:33.175Z,48.43
2022-08-19T16:51:33.110Z,49.12
2022-08-19T16:56:32.977Z,49.74
2022-08-19T17:01:33.049Z,50.98
2022-08-19T17:06:32.937Z,50.70
2022-08-19T17:11:32.833Z,51.23
2022-08-19T17:16:32.756Z,51.15
2022-08-19T17:21:39.765Z,52.84
2022-08-19T17:26:32.657Z,53.56
2022-08-19T17:31:32.651Z,52.67
2022-08-19T17:36:32.544Z,53.56
2022-08-19T17:41:32.499Z,54.48
2022-08-19T17:46:32.449Z,53.36
2022-08-19T17:51:32.477Z,53.96
2022-08-19T17:56:32.329Z,52.34
2022-08-19T18:01:52.673Z,52.04
2022-08-19T18:06:33.227Z,53.44
2022-08-19T18:11:32.176Z,54.06
2022-08-19T18:16:33.169Z,55.77
2022-08-19T18:21:32.070Z,56.10
2022-08-19T18:26:32.125Z,57.32
2022-08-19T18:31:32.077Z,58.04
2022-08-19T18:36:52.483Z,59.56
2022-08-19T18:41:33.001Z,60.46
2022-08-19T18:46:36.914Z,60.89
2022-08-19T18:51:31.785Z,62.31
2022-08-19T18:56:31.735Z,63.11
2022-08-19T19:01:31.715Z,63.81
2022-08-19T19:06:31.610Z,72.95
2022-08-19T19:11:31.528Z,75.02
2022-08-19T19:16:31.486Z,76.82
2022-08-19T19:21:34.479Z,77.36
2022-08-19T19:26:31.475Z,78.59
2022-08-19T19:31:31.365Z,77.86
2022-08-19T19:36:31.258Z,78.69
2022-08-19T19:41:31.249Z,78.49
2022-08-19T19:46:31.272Z,79.79
2022-08-19T19:51:31.122Z,81.83
2022-08-19T19:56:32.049Z,79.23
2022-08-19T20:01:31.036Z,81.03
2022-08-19T20:06:30.944Z,80.67
2022-08-19T20:11:30.881Z,81.67
2022-08-19T20:16:30.908Z,80.36
2022-08-19T20:21:30.836Z,81.67
2022-08-19T20:26:33.689Z,82.77
2022-08-19T20:31:30.665Z,81.27
2022-08-19T20:36:32.715Z,81.01
2022-08-19T20:41:30.663Z,81.11
2022-08-19T20:46:30.506Z,82.01
2022-08-19T20:51:30.508Z,81.41
2022-08-19T20:56:30.383Z,81.61
2022-08-19T21:01:30.391Z,81.41
2022-08-19T21:06:30.288Z,82.21
2022-08-19T21:11:30.262Z,83.11
2022-08-19T21:16:30.281Z,82.61
2022-08-19T21:21:30.217Z,82.91
2022-08-19T21:26:30.075Z,83.31
2022-08-19T21:31:30.019Z,83.11
2022-08-19T21:36:29.950Z,82.81
2022-08-19T21:41:29.965Z,82.91
2022-08-19T21:46:29.838Z,84.37
2022-08-19T21:51:29.799Z,84.77
2022-08-19T21:56:29.728Z,82.87
2022-08-19T22:01:29.688Z,83.57
2022-08-19T22:06:29.661Z,84.07
2022-08-19T22:11:29.597Z,82.77
2022-08-19T22:16:30.689Z,83.87
2022-08-19T22:21:40.314Z,85.77
2022-08-19T22:26:30.400Z,83.87
2022-08-19T22:31:29.370Z,84.47
2022-08-19T22:36:29.310Z,84.77
2022-08-19T22:41:29.230Z,84.57
2022-08-19T22:46:29.195Z,85.37
2022-08-19T22:51:29.128Z,85.68
2022-08-19T22:56:29.081Z,87.48
2022-08-19T23:01:30.601Z,90.02
2022-08-19T23:06:33.381Z,92.07
2022-08-19T23:11:29.963Z,93.07
2022-08-19T23:16:28.865Z,93.62
2022-08-19T23:21:37.650Z,94.31
2022-08-19T23:26:32.671Z,94.92
2022-08-19T23:31:29.695Z,95.01
2022-08-19T23:36:28.641Z,95.42
2022-08-19T23:41:28.596Z,95.36
2022-08-19T23:46:28.679Z,96.06
2022-08-19T23:51:28.481Z,96.06
2022-08-19T23:56:28.422Z,96.26
